X  CloseMetar Aviation Weather Data     KDLS Columbia Gorge Regional / The Dalles Municipal

Temperature

72°F Temperature

54°F Dewpoint

53% Humidity



Wind

 7 MPH

11 KM/H

 3 M/S

 6 KTS



340°
NNWdir
Current Conditions

Clear Clear
Pressure 1009.52 (hPa) - 29.81 (in)
Visibility 0 (mi) - 0 (km)
Airport
Airport-code KDLS

Location Columbia Gorge Regional / The Dalles Municipal 2 (mi)

Metar:
KDLS 181653Z AUTO 34006KT CLR 22/12 A2981 RMK AO2 SLP095 T02170117 $

Time: 08-18-2019 9:53